Time;durP1;ratioP1;P1;durP2;ratioP2;P2;SDS_P1;SDS_P2;PMS_P1;PMS_P2;Temp;Humidity;BMP_temperature;BMP_pressure;BME280_temperature;BME280_humidity;BME280_pressure;Samples;Min_cycle;Max_cycle;Signal;HPM_P1;HPM_P2
2021/03/07 00:00:26;;;;;;;22.73;11.38;;;-3275.40;84.00;;;;;;5014256;28;20389;-87
2021/03/07 00:02:52;;;;;;;24.07;11.83;;;-3275.40;83.70;;;;;;5013522;28;20418;-86
2021/03/07 00:05:18;;;;;;;22.58;10.55;;;-3275.40;83.30;;;;;;5014283;28;20385;-88
2021/03/07 00:07:45;;;;;;;22.63;11.57;;;-3275.40;83.60;;;;;;5013138;28;20757;-88
2021/03/07 00:10:13;;;;;;;24.45;11.15;;;-3275.20;85.00;;;;;;5013654;28;20699;-87
2021/03/07 00:12:39;;;;;;;27.15;11.48;;;-3275.10;85.70;;;;;;5013381;28;20447;-87
2021/03/07 00:15:07;;;;;;;25.47;11.47;;;-3275.20;85.30;;;;;;5013703;28;20433;-87
2021/03/07 00:17:33;;;;;;;26.13;10.45;;;-3275.20;85.10;;;;;;5013129;28;20846;-88
2021/03/07 00:19:59;;;;;;;24.53;11.10;;;-3275.00;86.00;;;;;;5012560;28;20391;-88
2021/03/07 00:22:24;;;;;;;23.93;10.57;;;-3275.10;85.20;;;;;;5012025;28;20720;-88
2021/03/07 00:24:50;;;;;;;26.75;10.10;;;-3275.20;84.50;;;;;;5012292;28;20419;-86
2021/03/07 00:27:16;;;;;;;25.27;10.40;;;-3275.30;84.30;;;;;;5012864;28;20377;-87
2021/03/07 00:29:42;;;;;;;24.23;10.63;;;-3275.20;84.50;;;;;;5011615;28;20433;-87
2021/03/07 00:32:07;;;;;;;21.80;9.95;;;-3275.20;84.20;;;;;;4995863;28;20431;-87
2021/03/07 00:34:33;;;;;;;23.75;10.32;;;-3275.20;84.30;;;;;;5013005;28;20619;-87
2021/03/07 00:36:59;;;;;;;21.52;10.20;;;-3275.10;84.50;;;;;;5012963;28;20472;-86
2021/03/07 00:39:24;;;;;;;22.08;10.25;;;-3274.90;86.10;;;;;;5012843;28;20396;-87
2021/03/07 00:41:50;;;;;;;24.63;9.80;;;-3275.00;85.20;;;;;;5013217;28;20373;-87
2021/03/07 00:44:16;;;;;;;21.77;9.93;;;-3275.10;85.20;;;;;;5012666;28;20412;-87
2021/03/07 00:46:46;;;;;;;22.38;10.18;;;-3275.00;86.00;;;;;;5011537;28;20413;-88
2021/03/07 00:49:14;;;;;;;22.50;10.23;;;-3274.90;86.30;;;;;;4996230;28;20389;-86
2021/03/07 00:51:40;;;;;;;19.48;10.18;;;-3275.00;84.80;;;;;;5012871;28;20389;-87
2021/03/07 00:54:05;;;;;;;23.20;9.80;;;-3275.10;84.20;;;;;;5011391;28;20423;-87
2021/03/07 00:56:31;;;;;;;24.97;10.73;;;-3274.90;85.60;;;;;;5012502;28;20404;-87
2021/03/07 00:58:56;;;;;;;24.63;9.90;;;-3274.80;87.00;;;;;;5011920;28;20439;-88
2021/03/07 01:01:22;;;;;;;25.70;9.93;;;-3274.80;86.40;;;;;;5012480;28;20439;-87
2021/03/07 01:03:48;;;;;;;19.97;10.47;;;-3274.90;85.10;;;;;;5011945;28;20415;-88
2021/03/07 01:06:14;;;;;;;25.92;10.23;;;-3274.90;85.00;;;;;;5012456;28;20398;-87
2021/03/07 01:08:39;;;;;;;20.75;10.15;;;-3274.90;85.20;;;;;;5011253;28;20747;-88
2021/03/07 01:11:05;;;;;;;23.13;10.97;;;-3274.80;85.30;;;;;;5011286;28;20400;-87
2021/03/07 01:13:30;;;;;;;23.67;10.37;;;-3274.90;85.20;;;;;;5011668;28;20404;-85
2021/03/07 01:15:56;;;;;;;21.27;9.35;;;-3274.80;85.30;;;;;;5012783;28;20380;-87
2021/03/07 01:18:22;;;;;;;22.58;9.60;;;-3274.90;85.00;;;;;;5012331;28;20460;-88
2021/03/07 01:20:48;;;;;;;21.30;9.87;;;-3274.90;85.30;;;;;;5012547;28;20387;-88
2021/03/07 01:23:15;;;;;;;25.67;10.18;;;-3274.90;84.60;;;;;;5012854;28;20408;-88
2021/03/07 01:25:41;;;;;;;18.45;9.35;;;-3274.70;85.60;;;;;;5012391;28;20388;-88
2021/03/07 01:28:07;;;;;;;19.47;8.80;;;-3274.80;85.30;;;;;;5011529;28;20420;-88
2021/03/07 01:30:35;;;;;;;27.25;9.98;;;-3274.80;85.20;;;;;;5012714;28;20384;-88
2021/03/07 01:33:01;;;;;;;19.17;9.18;;;-3274.80;85.20;;;;;;5011957;28;20446;-89
2021/03/07 01:35:27;;;;;;;23.67;9.35;;;-3274.60;85.90;;;;;;5011324;28;20531;-88
2021/03/07 01:37:52;;;;;;;19.93;9.00;;;-3274.70;85.40;;;;;;5011898;28;20754;-88
2021/03/07 01:40:24;;;;;;;19.35;9.40;;;-3274.70;85.80;;;;;;5012342;28;20456;-87
2021/03/07 01:42:52;;;;;;;21.88;10.77;;;-3274.70;86.30;;;;;;5012119;28;20408;-88
2021/03/07 01:45:22;;;;;;;22.75;9.70;;;-3274.60;85.60;;;;;;5012044;28;20389;-88
2021/03/07 01:47:51;;;;;;;18.65;9.75;;;-3274.70;85.40;;;;;;5010546;28;20400;-87
2021/03/07 01:50:18;;;;;;;20.60;9.25;;;-3274.80;85.20;;;;;;5011008;28;20474;-87
2021/03/07 01:52:44;;;;;;;21.83;9.68;;;-3274.70;85.20;;;;;;5011753;28;20827;-86
2021/03/07 01:55:10;;;;;;;20.77;9.70;;;-3274.70;85.30;;;;;;5010951;28;20451;-88
2021/03/07 01:57:37;;;;;;;18.48;8.80;;;-3274.70;85.20;;;;;;5011305;28;20396;-87
2021/03/07 02:00:07;;;;;;;20.40;9.50;;;-3274.70;84.90;;;;;;5011845;28;20385;-89
2021/03/07 02:02:32;;;;;;;19.88;10.07;;;-3274.70;85.40;;;;;;5011555;28;20413;-88
2021/03/07 02:04:58;;;;;;;21.48;10.32;;;-3274.40;86.80;;;;;;5012056;28;20777;-86
2021/03/07 02:07:24;;;;;;;20.40;9.20;;;-3274.40;87.50;;;;;;5011300;28;20476;-88
2021/03/07 02:09:50;;;;;;;16.53;9.03;;;-3274.50;86.60;;;;;;5011672;28;20415;-88
2021/03/07 02:12:20;;;;;;;18.33;9.97;;;-3274.50;87.00;;;;;;5011605;28;20785;-88
2021/03/07 02:14:49;;;;;;;21.98;10.05;;;-3274.40;87.10;;;;;;5011748;28;20389;-88
2021/03/07 02:17:14;;;;;;;22.08;10.70;;;-3274.50;86.70;;;;;;5011603;28;20480;-88
2021/03/07 02:19:41;;;;;;;20.08;9.77;;;-3274.50;86.10;;;;;;5010566;28;20680;-86
2021/03/07 02:22:12;;;;;;;22.25;10.13;;;-3274.50;86.10;;;;;;5011931;28;20389;-87
2021/03/07 02:24:39;;;;;;;18.67;10.52;;;-3274.50;86.10;;;;;;5011545;28;20397;-87
2021/03/07 02:27:05;;;;;;;18.65;10.13;;;-3274.50;86.60;;;;;;5011342;28;20377;-88
2021/03/07 02:29:31;;;;;;;21.80;10.20;;;-3274.40;87.10;;;;;;5011269;28;20408;-87
2021/03/07 02:32:02;;;;;;;23.63;9.90;;;-3274.30;87.50;;;;;;5011321;28;20385;-88
2021/03/07 02:34:37;;;;;;;21.50;10.20;;;-3274.40;86.70;;;;;;5011395;28;20389;-88
2021/03/07 02:37:07;;;;;;;17.98;9.40;;;-3274.40;86.50;;;;;;5009760;28;20396;-86
2021/03/07 02:39:36;;;;;;;21.45;11.38;;;-3274.40;86.50;;;;;;5010507;28;20400;-88
2021/03/07 02:42:15;;;;;;;18.85;9.88;;;-3274.30;87.30;;;;;;5011031;28;20722;-88
2021/03/07 02:44:44;;;;;;;20.45;9.98;;;-3274.30;87.20;;;;;;5012503;28;20397;-88
2021/03/07 02:47:12;;;;;;;19.55;10.32;;;-3274.40;86.60;;;;;;5013674;28;20392;-88
2021/03/07 02:49:38;;;;;;;20.05;9.77;;;-3274.40;86.70;;;;;;5014382;28;20724;-89
2021/03/07 02:52:05;;;;;;;20.00;9.68;;;-3274.40;86.70;;;;;;5015181;28;20395;-88
2021/03/07 02:54:34;;;;;;;20.23;9.65;;;-3274.30;86.70;;;;;;5015304;28;20392;-89
2021/03/07 02:57:01;;;;;;;23.42;9.70;;;-3274.30;86.70;;;;;;5014729;28;20553;-88
2021/03/07 02:59:28;;;;;;;18.00;9.73;;;-3274.30;86.60;;;;;;5014946;28;20447;-83
2021/03/07 03:02:04;;;;;;;23.77;10.48;;;-3274.40;86.40;;;;;;5015508;28;20396;-88
2021/03/07 03:04:32;;;;;;;23.17;10.40;;;-3274.40;86.50;;;;;;5014653;28;20444;-86
2021/03/07 03:07:00;;;;;;;17.52;9.52;;;-3274.40;86.80;;;;;;5014931;28;20389;-87
2021/03/07 03:09:29;;;;;;;18.92;9.52;;;-3274.40;86.00;;;;;;5013688;28;20404;-87
2021/03/07 03:11:58;;;;;;;18.85;9.75;;;-3274.50;85.80;;;;;;5014119;28;20396;-88
2021/03/07 03:14:24;;;;;;;19.38;9.45;;;-3274.40;86.50;;;;;;5014497;28;20392;-88
2021/03/07 03:16:56;;;;;;;22.42;9.82;;;-3274.30;86.00;;;;;;5013391;28;20397;-87
2021/03/07 03:19:25;;;;;;;17.80;9.73;;;-3274.30;86.50;;;;;;5014487;28;20381;-88
2021/03/07 03:21:51;;;;;;;22.98;10.20;;;-3274.30;86.80;;;;;;5014888;28;20385;-86
2021/03/07 03:24:19;;;;;;;17.73;9.90;;;-3274.20;87.50;;;;;;5013657;28;20514;-87
2021/03/07 03:26:45;;;;;;;18.25;10.30;;;-3274.20;86.50;;;;;;5013317;28;20948;-88
2021/03/07 03:29:11;;;;;;;22.13;10.07;;;-3274.00;87.40;;;;;;5014616;28;20409;-88
2021/03/07 03:31:37;;;;;;;24.58;10.18;;;-3274.20;88.10;;;;;;5014528;28;20439;-88
2021/03/07 03:34:05;;;;;;;21.38;10.15;;;-3274.20;87.00;;;;;;5013252;28;20385;-87
2021/03/07 03:36:31;;;;;;;17.48;9.27;;;-3274.20;87.90;;;;;;5014061;28;20389;-88
2021/03/07 03:39:02;;;;;;;17.40;8.88;;;-3274.20;86.90;;;;;;5013158;28;20466;-88
2021/03/07 03:41:32;;;;;;;16.90;9.23;;;-3274.30;86.70;;;;;;5012930;28;20408;-87
2021/03/07 03:44:04;;;;;;;18.25;9.93;;;-3274.20;86.30;;;;;;5014465;28;20511;-86
2021/03/07 03:46:36;;;;;;;17.67;9.40;;;-3274.10;87.20;;;;;;5012515;28;20408;-86
2021/03/07 03:49:15;;;;;;;18.55;9.77;;;-3274.10;86.80;;;;;;5014005;28;20404;-88
2021/03/07 03:51:43;;;;;;;18.33;9.75;;;-3274.10;86.90;;;;;;5014411;28;20385;-87
2021/03/07 03:54:11;;;;;;;24.38;11.20;;;-3274.20;86.70;;;;;;5013900;28;20377;-87
2021/03/07 03:56:37;;;;;;;22.05;11.35;;;-3274.20;87.00;;;;;;5012245;28;20396;-85
2021/03/07 03:59:04;;;;;;;20.40;10.67;;;-3274.20;86.70;;;;;;5012645;28;20472;-87
2021/03/07 04:01:33;;;;;;;21.60;10.25;;;-3274.20;86.50;;;;;;5012655;28;20424;-88
2021/03/07 04:04:02;;;;;;;17.95;10.77;;;-3274.20;86.90;;;;;;5013642;28;20420;-86
2021/03/07 04:06:29;;;;;;;25.07;10.60;;;-3274.30;86.70;;;;;;5012185;28;20440;-83
2021/03/07 04:08:55;;;;;;;16.98;9.80;;;-3274.20;87.30;;;;;;5012569;28;20399;-87
2021/03/07 04:11:22;;;;;;;17.65;9.73;;;-3274.20;87.40;;;;;;5013739;28;20389;-88
2021/03/07 04:13:48;;;;;;;21.65;10.43;;;-3274.00;87.20;;;;;;5012068;28;20508;-88
2021/03/07 04:16:15;;;;;;;18.50;9.57;;;-3274.00;87.00;;;;;;5012758;28;20396;-87
2021/03/07 04:18:41;;;;;;;21.90;10.70;;;-3274.10;86.80;;;;;;5013154;28;20435;-86
2021/03/07 04:21:08;;;;;;;22.08;10.93;;;-3274.00;87.60;;;;;;5013275;28;20385;-86
2021/03/07 04:23:34;;;;;;;22.00;10.85;;;-3273.90;87.80;;;;;;5013861;28;20974;-87
2021/03/07 04:26:00;;;;;;;22.45;10.02;;;-3273.90;88.30;;;;;;5012980;28;20445;-88
2021/03/07 04:28:26;;;;;;;20.33;10.18;;;-3274.00;88.00;;;;;;5012805;28;20412;-88
2021/03/07 04:30:53;;;;;;;21.73;11.13;;;-3274.10;87.40;;;;;;5013340;28;20381;-88
2021/03/07 04:33:19;;;;;;;20.20;10.20;;;-3274.10;87.00;;;;;;5013217;28;20396;-88
2021/03/07 04:35:45;;;;;;;17.70;10.13;;;-3274.00;87.40;;;;;;5013023;28;20397;-87
2021/03/07 04:38:11;;;;;;;28.88;11.15;;;-3273.90;87.80;;;;;;5011584;28;20421;-86
2021/03/07 04:40:39;;;;;;;20.42;9.80;;;-3273.90;86.90;;;;;;5011713;28;20487;-87
2021/03/07 04:43:06;;;;;;;23.42;9.88;;;-3274.00;87.10;;;;;;5012467;28;20492;-85
2021/03/07 04:45:31;;;;;;;18.98;9.98;;;-3273.90;87.50;;;;;;5012142;28;20819;-88
2021/03/07 04:47:57;;;;;;;24.20;10.57;;;-3273.90;87.40;;;;;;5012330;28;20771;-88
2021/03/07 04:50:26;;;;;;;19.05;9.65;;;-3273.90;86.90;;;;;;5012763;28;20403;-87
2021/03/07 04:52:51;;;;;;;21.63;10.93;;;-3273.90;87.30;;;;;;5012998;28;20388;-88
2021/03/07 04:55:17;;;;;;;20.40;10.63;;;-3273.80;87.50;;;;;;5013157;28;20389;-87
2021/03/07 04:57:43;;;;;;;23.37;9.73;;;-3273.80;88.00;;;;;;5011113;28;20435;-88
2021/03/07 05:00:12;;;;;;;22.52;10.20;;;-3273.70;88.40;;;;;;5010646;28;20989;-88
2021/03/07 05:02:38;;;;;;;23.50;10.05;;;-3273.80;87.60;;;;;;5012846;28;20385;-87
2021/03/07 05:05:05;;;;;;;20.57;10.07;;;-3273.80;87.90;;;;;;5011652;28;20754;-88
2021/03/07 05:07:30;;;;;;;18.85;9.70;;;-3273.80;87.60;;;;;;5011439;28;20376;-86
2021/03/07 05:09:56;;;;;;;21.03;10.10;;;-3273.90;87.50;;;;;;5011866;28;20392;-82
2021/03/07 05:12:22;;;;;;;20.47;10.10;;;-3273.80;87.50;;;;;;5012399;28;20467;-88
2021/03/07 05:14:48;;;;;;;20.52;10.57;;;-3273.90;87.50;;;;;;5011501;28;20889;-87
2021/03/07 05:17:14;;;;;;;24.15;11.15;;;-3273.60;87.80;;;;;;5010859;28;20397;-87
2021/03/07 05:19:39;;;;;;;23.33;10.82;;;-3273.60;89.00;;;;;;5012116;28;20404;-88
2021/03/07 05:22:05;;;;;;;19.93;10.70;;;-3273.70;89.00;;;;;;5011606;28;20388;-86
2021/03/07 05:24:34;;;;;;;29.33;14.77;;;-3273.60;88.50;;;;;;5012022;28;20497;-87
2021/03/07 05:27:05;;;;;;;36.15;17.17;;;-3273.60;88.60;;;;;;5011773;28;20431;-86
2021/03/07 05:29:35;;;;;;;26.50;13.98;;;-3273.70;88.60;;;;;;5010929;28;20401;-88
2021/03/07 05:32:02;;;;;;;26.17;12.80;;;-3273.80;87.70;;;;;;5011089;28;20420;-87
2021/03/07 05:34:28;;;;;;;21.42;12.38;;;-3273.60;88.20;;;;;;5011467;28;20404;-87
2021/03/07 05:36:53;;;;;;;20.10;10.70;;;-3273.70;88.40;;;;;;5012138;28;20385;-88
2021/03/07 05:39:19;;;;;;;18.02;10.07;;;-3273.70;88.30;;;;;;5012031;28;20412;-88
2021/03/07 05:41:45;;;;;;;19.20;10.68;;;-3273.80;87.60;;;;;;5012413;28;20389;-88
2021/03/07 05:44:11;;;;;;;23.17;10.60;;;-3273.70;88.20;;;;;;5011263;28;20459;-88
2021/03/07 05:46:38;;;;;;;20.63;10.93;;;-3273.70;87.70;;;;;;5010570;28;20455;-88
2021/03/07 05:49:04;;;;;;;21.17;10.90;;;-3273.50;88.20;;;;;;5011355;28;20393;-88
2021/03/07 05:51:30;;;;;;;21.67;10.67;;;-3273.60;88.40;;;;;;5011643;28;20517;-86
2021/03/07 05:53:56;;;;;;;19.20;10.63;;;-3273.60;88.50;;;;;;5012005;28;20436;-85
2021/03/07 05:56:22;;;;;;;21.80;10.53;;;-3273.80;88.30;;;;;;5010567;28;20385;-88
2021/03/07 05:58:50;;;;;;;18.50;10.02;;;-3273.70;88.40;;;;;;5011953;28;20381;-87
2021/03/07 06:01:16;;;;;;;21.75;10.63;;;-3273.60;87.70;;;;;;5011650;28;20391;-87
2021/03/07 06:03:42;;;;;;;16.95;9.55;;;-3273.60;88.30;;;;;;5011954;28;20408;-88
2021/03/07 06:06:08;;;;;;;18.03;9.87;;;-3273.50;88.40;;;;;;5010522;28;20428;-88
2021/03/07 06:08:34;;;;;;;17.10;9.77;;;-3273.70;88.10;;;;;;5010953;28;20397;-89
2021/03/07 06:11:00;;;;;;;18.38;9.98;;;-3273.70;87.80;;;;;;5011879;28;20385;-88
2021/03/07 06:13:39;;;;;;;22.77;9.75;;;-3273.80;88.00;;;;;;5011341;28;20396;-88
2021/03/07 06:16:08;;;;;;;22.67;10.77;;;-3273.80;88.00;;;;;;5011787;28;20385;-87
2021/03/07 06:18:45;;;;;;;16.65;8.98;;;-3273.80;87.70;;;;;;5009650;28;20515;-88
2021/03/07 06:21:34;;;;;;;18.80;10.20;;;-3273.80;87.80;;;;;;5010576;28;20972;-87
2021/03/07 06:24:01;;;;;;;20.20;10.60;;;-3273.60;87.80;;;;;;5009697;28;20488;-87
2021/03/07 06:26:27;;;;;;;22.20;11.13;;;-3273.50;88.40;;;;;;5009996;28;20584;-83
2021/03/07 06:29:13;;;;;;;36.63;17.58;;;-3273.60;88.80;;;;;;5011384;28;20487;-87
2021/03/07 06:31:40;;;;;;;32.92;15.27;;;-3273.70;88.40;;;;;;5011339;28;20380;-88
2021/03/07 06:34:06;;;;;;;27.77;14.18;;;-3273.60;87.70;;;;;;5010597;28;20451;-88
2021/03/07 06:36:32;;;;;;;21.60;11.65;;;-3273.60;87.70;;;;;;5009697;28;20388;-87
2021/03/07 06:39:03;;;;;;;21.33;11.97;;;-3273.70;87.40;;;;;;5011628;28;20458;-88
2021/03/07 06:41:31;;;;;;;18.92;10.65;;;-3273.70;88.10;;;;;;5011078;28;20412;-87
2021/03/07 06:44:14;;;;;;;20.20;10.17;;;-3273.60;88.10;;;;;;5011450;28;20413;-88
2021/03/07 06:46:44;;;;;;;20.90;10.75;;;-3273.60;87.50;;;;;;5009589;28;20392;-86
2021/03/07 06:49:29;;;;;;;20.65;10.32;;;-3273.70;87.60;;;;;;5009799;28;20399;-87
2021/03/07 06:52:16;;;;;;;16.45;9.98;;;-3273.80;87.90;;;;;;5009716;28;20392;-87
2021/03/07 06:54:44;;;;;;;19.13;10.13;;;-3273.80;88.90;;;;;;5010085;28;20874;-88
2021/03/07 06:57:10;;;;;;;17.90;9.40;;;-3273.80;88.30;;;;;;5009916;28;20609;-88
2021/03/07 06:59:36;;;;;;;18.10;9.95;;;-3273.80;87.70;;;;;;5009121;28;20805;-87
2021/03/07 07:02:10;;;;;;;23.67;10.40;;;-3273.80;88.30;;;;;;5011133;28;20388;-88
2021/03/07 07:04:43;;;;;;;20.70;10.30;;;-3273.80;88.10;;;;;;5009971;28;20413;-87
2021/03/07 07:07:12;;;;;;;19.92;10.10;;;-3273.90;87.90;;;;;;5009928;28;20440;-86
2021/03/07 07:09:44;;;;;;;20.92;10.55;;;-3273.90;88.30;;;;;;5005342;28;20423;-87
2021/03/07 07:12:23;;;;;;;19.52;10.32;;;-3273.80;89.30;;;;;;4993103;28;20406;-87
2021/03/07 07:14:49;;;;;;;24.27;10.98;;;-3273.90;88.40;;;;;;4991437;28;20784;-86
2021/03/07 07:17:19;;;;;;;21.23;11.00;;;-3273.90;88.70;;;;;;4990561;28;20418;-85
2021/03/07 07:19:46;;;;;;;26.20;11.18;;;-3274.10;89.00;;;;;;4991010;28;20598;-85
2021/03/07 07:22:15;;;;;;;22.48;10.52;;;-3274.10;88.30;;;;;;4990770;28;20414;-85
2021/03/07 07:24:41;;;;;;;23.17;10.70;;;-3274.20;88.40;;;;;;4989526;28;20406;-85
2021/03/07 07:27:08;;;;;;;19.40;10.32;;;-3274.20;88.90;;;;;;4990426;28;20437;-85
2021/03/07 07:29:35;;;;;;;21.55;10.70;;;-3274.20;88.30;;;;;;4990932;28;20911;-85
2021/03/07 07:32:08;;;;;;;24.42;11.85;;;-3274.30;88.00;;;;;;4992395;28;20390;-85
2021/03/07 07:34:45;;;;;;;25.63;12.68;;;-3274.30;88.50;;;;;;4994751;28;20429;-86
2021/03/07 07:37:21;;;;;;;26.48;13.68;;;-3274.30;89.10;;;;;;4992528;28;20402;-85
2021/03/07 07:39:52;;;;;;;24.90;14.27;;;-3274.50;89.70;;;;;;4992510;28;20402;-85
2021/03/07 07:42:36;;;;;;;28.17;14.25;;;-3274.60;90.00;;;;;;4993446;28;20395;-85
2021/03/07 07:45:16;;;;;;;22.98;13.77;;;-3274.70;89.90;;;;;;4993368;28;20543;-85
2021/03/07 07:47:44;;;;;;;23.08;13.77;;;-3274.90;89.70;;;;;;4992271;28;20491;-84
2021/03/07 07:50:37;;;;;;;24.63;13.47;;;-3274.90;89.50;;;;;;4994503;28;20486;-85
2021/03/07 07:53:05;;;;;;;25.85;13.90;;;-3275.00;89.60;;;;;;4992177;28;20403;-84
2021/03/07 07:55:44;;;;;;;25.52;13.25;;;-3275.10;89.40;;;;;;4992709;28;20403;-85
2021/03/07 07:58:31;;;;;;;28.33;13.77;;;-3275.20;89.40;;;;;;4993379;28;20387;-85
2021/03/07 08:00:57;;;;;;;26.55;14.00;;;-3275.30;89.10;;;;;;4992145;28;20522;-83
2021/03/07 08:03:31;;;;;;;28.73;14.37;;;-3275.40;89.00;;;;;;4993797;28;20922;-84
2021/03/07 08:06:01;;;;;;;25.48;14.07;;;-3275.60;89.70;;;;;;4992155;28;20903;-84
2021/03/07 08:08:35;;;;;;;26.58;13.38;;;-3275.60;88.60;;;;;;4992807;28;20760;-84
2021/03/07 08:11:03;;;;;;;24.33;13.70;;;-3275.70;88.10;;;;;;4991308;28;20899;-83
2021/03/07 08:13:28;;;;;;;21.27;12.87;;;-3275.90;88.20;;;;;;4993788;28;20387;-83
2021/03/07 08:16:04;;;;;;;26.03;13.13;;;-3276.10;87.30;;;;;;4992160;28;20907;-83
2021/03/07 08:18:50;;;;;;;24.40;13.07;;;-3276.20;87.40;;;;;;4992160;28;20386;-84
2021/03/07 08:21:18;;;;;;;25.60;13.75;;;-3276.30;86.90;;;;;;4993291;28;20398;-83
2021/03/07 08:24:00;;;;;;;23.27;13.73;;;-3276.30;86.70;;;;;;4992472;28;20473;-83
2021/03/07 08:26:43;;;;;;;23.85;13.38;;;-3276.40;86.70;;;;;;4993196;28;20403;-83
2021/03/07 08:29:37;;;;;;;26.27;15.00;;;-3276.40;87.00;;;;;;4992856;28;20398;-83
2021/03/07 08:32:25;;;;;;;25.93;14.53;;;-3276.50;87.40;;;;;;4993012;28;20403;-82
2021/03/07 08:34:51;;;;;;;26.70;14.20;;;-3276.60;87.50;;;;;;4990872;28;20399;-83
2021/03/07 08:37:17;;;;;;;24.65;13.07;;;0.00;86.40;;;;;;4992040;28;20393;-83
2021/03/07 08:39:43;;;;;;;24.45;13.95;;;0.00;86.10;;;;;;4991723;28;20394;-82
2021/03/07 08:42:08;;;;;;;22.67;13.60;;;0.20;86.40;;;;;;4991751;28;20394;-82
2021/03/07 08:44:34;;;;;;;23.02;14.60;;;0.30;85.80;;;;;;4992429;28;20418;-82
2021/03/07 08:47:01;;;;;;;28.52;14.57;;;0.40;85.70;;;;;;4992127;28;20394;-82
2021/03/07 08:49:29;;;;;;;22.92;13.68;;;0.70;86.60;;;;;;4992602;28;20402;-82
2021/03/07 08:52:04;;;;;;;24.77;13.57;;;1.00;85.50;;;;;;4992168;28;20449;-82
2021/03/07 08:54:34;;;;;;;26.50;14.32;;;1.10;85.30;;;;;;4991296;28;20845;-82
2021/03/07 08:57:06;;;;;;;28.75;14.25;;;1.30;85.10;;;;;;4991883;28;20417;-82
2021/03/07 08:59:34;;;;;;;25.88;13.60;;;1.30;85.10;;;;;;4990936;28;20424;-81
2021/03/07 09:02:00;;;;;;;21.35;13.20;;;1.40;84.90;;;;;;4992206;28;20413;-82
2021/03/07 09:04:33;;;;;;;21.23;12.90;;;1.30;85.00;;;;;;4991791;28;20483;-82
2021/03/07 09:06:59;;;;;;;22.42;13.00;;;1.40;84.70;;;;;;4990584;28;20453;-82
2021/03/07 09:09:24;;;;;;;21.73;11.32;;;1.50;83.90;;;;;;4991086;28;20856;-82
2021/03/07 09:11:57;;;;;;;20.40;11.50;;;1.70;83.50;;;;;;4989501;28;20414;-82
2021/03/07 09:14:37;;;;;;;22.25;10.70;;;1.90;82.50;;;;;;4991075;28;20484;-81
2021/03/07 09:17:23;;;;;;;22.25;10.60;;;2.30;82.90;;;;;;4989074;28;20455;-81
2021/03/07 09:19:49;;;;;;;20.73;10.20;;;2.60;80.40;;;;;;4990192;28;20433;-82
2021/03/07 09:22:22;;;;;;;19.90;10.00;;;2.40;80.70;;;;;;4990880;28;20866;-81
2021/03/07 09:24:51;;;;;;;16.30;8.45;;;2.50;79.60;;;;;;4997885;28;20421;-81
2021/03/07 09:27:16;;;;;;;19.77;9.45;;;2.50;78.10;;;;;;5009584;28;20409;-81
2021/03/07 09:30:15;;;;;;;17.67;8.80;;;2.90;77.50;;;;;;5009907;28;20479;-81
2021/03/07 09:32:46;;;;;;;21.92;9.82;;;3.10;76.30;;;;;;5011155;28;20383;-80
2021/03/07 09:35:28;;;;;;;13.98;8.00;;;3.00;75.60;;;;;;5010112;28;20427;-81
2021/03/07 09:37:59;;;;;;;14.10;7.53;;;3.10;74.40;;;;;;5010906;28;20909;-81
2021/03/07 09:40:26;;;;;;;15.17;7.70;;;3.30;74.10;;;;;;5009515;28;20851;-80
2021/03/07 09:42:57;;;;;;;13.45;7.10;;;3.40;75.00;;;;;;5011293;28;20409;-81
2021/03/07 09:45:23;;;;;;;13.52;6.57;;;3.20;72.80;;;;;;5010930;28;20392;-81
2021/03/07 09:47:50;;;;;;;13.55;7.15;;;3.40;73.10;;;;;;5010855;28;20399;-80
2021/03/07 09:50:17;;;;;;;13.43;7.20;;;3.70;72.10;;;;;;5009557;28;20401;-81
2021/03/07 09:52:45;;;;;;;10.27;5.28;;;3.50;72.70;;;;;;5009788;28;20405;-81
2021/03/07 09:55:11;;;;;;;8.77;4.35;;;3.60;69.20;;;;;;5009320;28;20774;-80
2021/03/07 09:57:38;;;;;;;10.32;4.28;;;3.80;68.40;;;;;;5008741;28;20397;-80
2021/03/07 10:00:04;;;;;;;8.13;4.10;;;4.00;67.50;;;;;;5009481;28;20396;-80
2021/03/07 10:02:35;;;;;;;7.25;3.20;;;4.20;66.70;;;;;;5010757;28;20878;-80
2021/03/07 10:05:12;;;;;;;8.10;3.40;;;4.40;66.50;;;;;;5011066;28;20384;-81
2021/03/07 10:07:38;;;;;;;6.97;3.80;;;4.40;65.80;;;;;;5009718;28;20386;-80
2021/03/07 10:10:23;;;;;;;7.45;3.88;;;3.90;68.40;;;;;;5010551;28;20384;-81
2021/03/07 10:12:54;;;;;;;5.93;3.60;;;4.30;67.00;;;;;;5010646;28;20385;-80
2021/03/07 10:15:39;;;;;;;6.75;3.53;;;4.00;65.40;;;;;;5009382;28;20393;-79
2021/03/07 10:18:17;;;;;;;9.10;3.65;;;4.00;67.20;;;;;;5008898;28;20480;-81
2021/03/07 10:20:57;;;;;;;8.07;3.80;;;4.10;67.10;;;;;;5001725;28;20398;-81
2021/03/07 10:23:26;;;;;;;6.90;3.45;;;4.20;67.80;;;;;;4996690;28;20414;-80
2021/03/07 10:25:52;;;;;;;5.95;3.40;;;4.30;65.70;;;;;;4991131;28;20799;-80
2021/03/07 10:28:23;;;;;;;7.85;3.20;;;4.20;65.50;;;;;;4999730;28;20400;-80
2021/03/07 10:30:50;;;;;;;5.40;2.97;;;4.30;65.50;;;;;;4998116;28;20502;-80
2021/03/07 10:33:16;;;;;;;7.70;3.17;;;4.10;63.20;;;;;;5006457;28;20489;-80
2021/03/07 10:36:02;;;;;;;6.40;2.50;;;3.90;63.00;;;;;;4989474;28;20485;-81
2021/03/07 10:38:29;;;;;;;6.35;3.13;;;4.00;62.30;;;;;;4988994;28;20891;-80
2021/03/07 10:40:55;;;;;;;6.57;3.40;;;3.90;61.90;;;;;;4990797;28;20489;-81
2021/03/07 10:43:21;;;;;;;6.38;3.65;;;3.80;62.90;;;;;;4989369;28;20517;-80
2021/03/07 10:45:46;;;;;;;8.57;4.93;;;3.90;61.10;;;;;;4989757;28;20395;-81
2021/03/07 10:48:13;;;;;;;6.88;4.07;;;4.00;62.20;;;;;;5004739;28;20406;-80
2021/03/07 10:50:48;;;;;;;7.10;4.30;;;4.20;61.50;;;;;;4989511;28;20401;-81
2021/03/07 10:53:16;;;;;;;6.35;4.45;;;4.20;62.20;;;;;;4989299;28;20820;-81
2021/03/07 10:55:49;;;;;;;7.90;4.90;;;4.20;60.80;;;;;;4990885;28;20434;-81
2021/03/07 10:58:15;;;;;;;8.77;4.50;;;4.10;61.40;;;;;;4989726;28;20383;-81
2021/03/07 11:00:40;;;;;;;6.97;4.57;;;4.20;61.30;;;;;;4989845;28;20386;-80
2021/03/07 11:03:06;;;;;;;7.33;4.67;;;4.30;61.60;;;;;;4990571;28;20418;-81
2021/03/07 11:05:32;;;;;;;8.18;4.72;;;4.60;62.00;;;;;;4989183;28;20426;-80
2021/03/07 11:07:58;;;;;;;10.65;5.65;;;4.40;60.90;;;;;;4994132;28;20387;-81
2021/03/07 11:10:23;;;;;;;8.23;5.00;;;4.00;60.10;;;;;;4992926;28;20390;-81
2021/03/07 11:12:49;;;;;;;9.38;5.70;;;4.00;61.10;;;;;;5009546;28;20420;-80
2021/03/07 11:15:16;;;;;;;9.88;5.30;;;4.30;60.50;;;;;;4994038;28;20400;-80
2021/03/07 11:17:41;;;;;;;10.85;6.63;;;4.30;60.50;;;;;;4993913;28;20386;-80
2021/03/07 11:20:09;;;;;;;11.70;7.57;;;4.10;58.10;;;;;;4993918;28;20807;-81
2021/03/07 11:22:35;;;;;;;11.98;7.38;;;4.10;58.70;;;;;;4992831;28;20422;-81
2021/03/07 11:25:02;;;;;;;10.50;6.70;;;4.00;58.60;;;;;;4993986;28;20875;-80
2021/03/07 11:27:28;;;;;;;10.98;6.50;;;4.10;57.60;;;;;;5000324;28;20389;-80
2021/03/07 11:29:54;;;;;;;10.60;7.00;;;4.30;58.00;;;;;;5013563;28;20404;-80
2021/03/07 11:32:19;;;;;;;9.53;6.83;;;4.80;58.90;;;;;;5013594;28;20909;-80
2021/03/07 11:34:45;;;;;;;12.73;6.90;;;5.60;54.80;;;;;;5012076;28;20471;-80
2021/03/07 11:37:10;;;;;;;8.23;5.77;;;5.30;55.50;;;;;;5011520;28;20429;-82
2021/03/07 11:39:36;;;;;;;9.67;6.27;;;5.60;54.30;;;;;;5013900;28;20385;-80
2021/03/07 11:42:02;;;;;;;8.87;6.20;;;5.80;57.20;;;;;;5013070;28;20415;-81
2021/03/07 11:44:27;;;;;;;10.13;5.60;;;6.20;53.80;;;;;;5013411;28;20488;-81
2021/03/07 11:46:53;;;;;;;7.83;5.27;;;5.50;54.10;;;;;;5010701;28;20891;-81
2021/03/07 11:49:20;;;;;;;7.65;5.03;;;5.20;56.00;;;;;;5012379;28;20381;-80
2021/03/07 11:51:46;;;;;;;7.50;4.78;;;4.80;55.80;;;;;;5006677;28;20395;-81
2021/03/07 11:54:12;;;;;;;4.97;3.90;;;4.50;57.60;;;;;;4991541;28;20464;-81
2021/03/07 11:56:37;;;;;;;7.30;4.32;;;4.50;59.00;;;;;;4999809;28;20870;-81
2021/03/07 11:59:03;;;;;;;8.18;4.30;;;4.70;58.80;;;;;;5000457;28;20452;-81
2021/03/07 12:01:29;;;;;;;6.60;4.32;;;4.40;58.10;;;;;;4998743;28;20385;-82
2021/03/07 12:03:55;;;;;;;8.70;4.68;;;4.40;58.10;;;;;;5007306;28;20425;-81
2021/03/07 12:06:21;;;;;;;6.90;4.78;;;4.30;57.50;;;;;;5012177;28;20385;-82
2021/03/07 12:08:46;;;;;;;7.90;5.03;;;4.10;58.20;;;;;;5010167;28;20392;-81
2021/03/07 12:11:12;;;;;;;7.33;5.13;;;4.30;56.90;;;;;;5010768;28;20391;-80
2021/03/07 12:13:38;;;;;;;9.70;5.50;;;4.80;56.60;;;;;;5026856;28;20401;-80
2021/03/07 12:16:04;;;;;;;9.17;6.20;;;5.30;57.20;;;;;;5011935;28;20381;-80
2021/03/07 12:18:30;;;;;;;8.88;5.90;;;4.90;52.80;;;;;;5011028;28;20377;-80
2021/03/07 12:20:56;;;;;;;9.47;6.57;;;5.30;54.90;;;;;;5012207;28;20395;-80
2021/03/07 12:23:21;;;;;;;11.70;7.25;;;5.20;53.10;;;;;;5010258;28;20832;-80